createdAt,value
2023-10-04T00:00:09.484Z,1010.92
2023-10-04T00:01:09.489Z,1010.92
2023-10-04T00:02:09.465Z,1010.95
2023-10-04T00:03:09.644Z,1010.98
2023-10-04T00:04:09.585Z,1011.03
2023-10-04T00:05:09.414Z,1011.06
2023-10-04T00:06:09.443Z,1011.08
2023-10-04T00:07:09.381Z,1011.08
2023-10-04T00:08:09.383Z,1011.11
2023-10-04T00:09:09.373Z,1011.12
2023-10-04T00:10:09.367Z,1011.12
2023-10-04T00:11:09.351Z,1011.14
2023-10-04T00:12:09.329Z,1011.15
2023-10-04T00:13:09.348Z,1011.19
2023-10-04T00:14:09.312Z,1011.20
2023-10-04T00:15:09.348Z,1011.18
2023-10-04T00:16:09.351Z,1011.17
2023-10-04T00:17:09.293Z,1011.18
2023-10-04T00:18:09.360Z,1011.17
2023-10-04T00:19:09.256Z,1011.19
2023-10-04T00:20:09.295Z,1011.19
2023-10-04T00:21:09.273Z,1011.20
2023-10-04T00:22:09.214Z,1011.25
2023-10-04T00:23:09.257Z,1011.21
2023-10-04T00:24:09.217Z,1011.23
2023-10-04T00:25:09.267Z,1011.26
2023-10-04T00:26:09.239Z,1011.26
2023-10-04T00:27:09.228Z,1011.27
2023-10-04T00:28:09.207Z,1011.30
2023-10-04T00:29:09.156Z,1011.27
2023-10-04T00:30:09.166Z,1011.30
2023-10-04T00:31:09.176Z,1011.34
2023-10-04T00:32:09.197Z,1011.29
2023-10-04T00:33:09.143Z,1011.27
2023-10-04T00:34:09.104Z,1011.28
2023-10-04T00:35:09.088Z,1011.28
2023-10-04T00:36:09.197Z,1011.30
2023-10-04T00:37:09.086Z,1011.32
2023-10-04T00:38:09.045Z,1011.33
2023-10-04T00:39:09.140Z,1011.36
2023-10-04T00:40:09.024Z,1011.36
2023-10-04T00:41:09.391Z,1011.36
2023-10-04T00:42:09.071Z,1011.35
2023-10-04T00:43:09.004Z,1011.38
2023-10-04T00:44:08.994Z,1011.38
2023-10-04T00:45:09.005Z,1011.38
2023-10-04T00:46:09.022Z,1011.40
2023-10-04T00:47:08.949Z,1011.39
2023-10-04T00:48:09.016Z,1011.42
2023-10-04T00:49:08.939Z,1011.37
2023-10-04T00:50:08.916Z,1011.37
2023-10-04T00:51:08.976Z,1011.35
2023-10-04T00:52:08.909Z,1011.38
2023-10-04T00:53:08.910Z,1011.39
2023-10-04T00:54:09.263Z,1011.41
2023-10-04T00:55:08.948Z,1011.43
2023-10-04T00:56:08.911Z,1011.44
2023-10-04T00:57:08.906Z,1011.43
2023-10-04T00:58:08.843Z,1011.44
2023-10-04T00:59:09.031Z,1011.43
2023-10-04T01:00:08.859Z,1011.42
2023-10-04T01:01:08.816Z,1011.42
2023-10-04T01:02:08.803Z,1011.40
2023-10-04T01:03:09.003Z,1011.45
2023-10-04T01:04:08.894Z,1011.43
2023-10-04T01:05:09.106Z,1011.43
2023-10-04T01:06:08.742Z,1011.45
2023-10-04T01:07:08.776Z,1011.44
2023-10-04T01:08:08.718Z,1011.40
2023-10-04T01:09:08.747Z,1011.41
2023-10-04T01:10:08.689Z,1011.41
2023-10-04T01:11:08.677Z,1011.40
2023-10-04T01:12:08.684Z,1011.39
2023-10-04T01:13:08.710Z,1011.43
2023-10-04T01:14:08.640Z,1011.45
2023-10-04T01:15:08.690Z,1011.46
2023-10-04T01:16:08.646Z,1011.44
2023-10-04T01:17:08.628Z,1011.42
2023-10-04T01:18:08.709Z,1011.40
2023-10-04T01:19:08.608Z,1011.38
2023-10-04T01:20:08.672Z,1011.43
2023-10-04T01:21:08.745Z,1011.44
2023-10-04T01:22:08.560Z,1011.44
2023-10-04T01:23:08.569Z,1011.44
2023-10-04T01:24:08.580Z,1011.42
2023-10-04T01:25:08.516Z,1011.44
2023-10-04T01:26:08.521Z,1011.48
2023-10-04T01:27:08.551Z,1011.51
2023-10-04T01:28:08.496Z,1011.48
2023-10-04T01:29:08.529Z,1011.48
2023-10-04T01:30:08.495Z,1011.46
2023-10-04T01:31:08.509Z,1011.47
2023-10-04T01:32:08.469Z,1011.44
2023-10-04T01:33:08.574Z,1011.45
2023-10-04T01:34:08.526Z,1011.43
2023-10-04T01:35:08.442Z,1011.44
2023-10-04T01:36:08.436Z,1011.43
2023-10-04T01:37:08.408Z,1011.41
2023-10-04T01:38:08.385Z,1011.41
2023-10-04T01:39:08.467Z,1011.43
2023-10-04T01:40:08.373Z,1011.40
2023-10-04T01:41:08.367Z,1011.42
2023-10-04T01:42:08.391Z,1011.44
2023-10-04T01:43:08.371Z,1011.42
2023-10-04T01:44:08.352Z,1011.45
2023-10-04T01:45:08.346Z,1011.46
2023-10-04T01:46:08.304Z,1011.42
2023-10-04T01:47:08.309Z,1011.45
2023-10-04T01:48:08.372Z,1011.42
2023-10-04T01:49:08.292Z,1011.44
2023-10-04T01:50:08.249Z,1011.46
2023-10-04T01:51:08.321Z,1011.47
2023-10-04T01:52:08.240Z,1011.44
2023-10-04T01:53:08.224Z,1011.47
2023-10-04T01:54:08.282Z,1011.45
2023-10-04T01:55:08.210Z,1011.43
2023-10-04T01:56:08.324Z,1011.42
2023-10-04T01:57:08.377Z,1011.43
2023-10-04T01:58:08.167Z,1011.41
2023-10-04T01:59:08.170Z,1011.39
2023-10-04T02:00:08.301Z,1011.41
2023-10-04T02:01:08.210Z,1011.40
2023-10-04T02:02:08.376Z,1011.43
2023-10-04T02:03:08.257Z,1011.46
2023-10-04T02:04:08.174Z,1011.43
2023-10-04T02:05:08.091Z,1011.40
2023-10-04T02:06:08.100Z,1011.38
2023-10-04T02:07:08.116Z,1011.38
2023-10-04T02:08:08.100Z,1011.36
2023-10-04T02:09:08.130Z,1011.36
2023-10-04T02:10:08.048Z,1011.33
2023-10-04T02:11:08.060Z,1011.35
2023-10-04T02:12:08.070Z,1011.36
2023-10-04T02:13:08.180Z,1011.37
2023-10-04T02:14:08.012Z,1011.39
2023-10-04T02:15:08.015Z,1011.41
2023-10-04T02:16:07.978Z,1011.40
2023-10-04T02:17:08.027Z,1011.44
2023-10-04T02:18:08.034Z,1011.44
2023-10-04T02:19:08.002Z,1011.42
2023-10-04T02:20:07.943Z,1011.43
2023-10-04T02:21:08.005Z,1011.46
2023-10-04T02:22:07.896Z,1011.48
2023-10-04T02:23:07.918Z,1011.47
2023-10-04T02:24:08.000Z,1011.46
2023-10-04T02:25:07.939Z,1011.48
2023-10-04T02:26:07.895Z,1011.50
2023-10-04T02:27:07.941Z,1011.53
2023-10-04T02:28:07.853Z,1011.49
2023-10-04T02:29:07.836Z,1011.53
2023-10-04T02:30:07.954Z,1011.54
2023-10-04T02:31:07.869Z,1011.55
2023-10-04T02:32:07.808Z,1011.56
2023-10-04T02:33:07.898Z,1011.57
2023-10-04T02:34:07.789Z,1011.55
2023-10-04T02:35:07.780Z,1011.55
2023-10-04T02:36:07.820Z,1011.54
2023-10-04T02:37:07.756Z,1011.55
2023-10-04T02:38:07.732Z,1011.55
2023-10-04T02:39:07.811Z,1011.55
2023-10-04T02:40:07.738Z,1011.57
2023-10-04T02:41:08.190Z,1011.55
2023-10-04T02:42:07.754Z,1011.55
2023-10-04T02:43:07.720Z,1011.55
2023-10-04T02:44:07.662Z,1011.56
2023-10-04T02:45:07.679Z,1011.54
2023-10-04T02:46:07.734Z,1011.55
2023-10-04T02:47:07.692Z,1011.60
2023-10-04T02:48:07.649Z,1011.59
2023-10-04T02:49:07.630Z,1011.62
2023-10-04T02:50:07.623Z,1011.56
2023-10-04T02:51:07.654Z,1011.58
2023-10-04T02:52:07.610Z,1011.57
2023-10-04T02:53:07.588Z,1011.55
2023-10-04T02:54:07.607Z,1011.59
2023-10-04T02:55:07.555Z,1011.59
2023-10-04T02:56:07.566Z,1011.56
2023-10-04T02:57:07.581Z,1011.55
2023-10-04T02:58:07.560Z,1011.57
2023-10-04T02:59:07.519Z,1011.55
2023-10-04T03:00:07.540Z,1011.58
2023-10-04T03:01:07.580Z,1011.56
2023-10-04T03:02:07.503Z,1011.57
2023-10-04T03:03:07.561Z,1011.58
2023-10-04T03:04:07.481Z,1011.57
2023-10-04T03:05:07.449Z,1011.56
2023-10-04T03:06:07.535Z,1011.54
2023-10-04T03:07:07.445Z,1011.58
2023-10-04T03:08:07.412Z,1011.58
2023-10-04T03:09:07.788Z,1011.62
2023-10-04T03:10:07.380Z,1011.62
2023-10-04T03:11:07.381Z,1011.65
2023-10-04T03:12:07.401Z,1011.68
2023-10-04T03:13:07.358Z,1011.67
2023-10-04T03:14:07.384Z,1011.70
2023-10-04T03:15:07.643Z,1011.68
2023-10-04T03:16:07.358Z,1011.71
2023-10-04T03:17:07.356Z,1011.68
2023-10-04T03:18:07.442Z,1011.68
2023-10-04T03:19:07.646Z,1011.70
2023-10-04T03:20:07.294Z,1011.68
2023-10-04T03:21:07.312Z,1011.69
2023-10-04T03:22:07.247Z,1011.66
2023-10-04T03:23:07.256Z,1011.66
2023-10-04T03:24:07.280Z,1011.69
2023-10-04T03:25:07.301Z,1011.67
2023-10-04T03:26:07.249Z,1011.64
2023-10-04T03:27:07.232Z,1011.67
2023-10-04T03:28:07.196Z,1011.65
2023-10-04T03:29:07.187Z,1011.65
2023-10-04T03:30:07.228Z,1011.63
2023-10-04T03:31:07.199Z,1011.60
2023-10-04T03:32:07.157Z,1011.62
2023-10-04T03:33:07.351Z,1011.62
2023-10-04T03:34:07.131Z,1011.62
2023-10-04T03:35:07.124Z,1011.61
2023-10-04T03:36:07.160Z,1011.63
2023-10-04T03:37:07.096Z,1011.65
2023-10-04T03:38:07.075Z,1011.65
2023-10-04T03:39:07.335Z,1011.69
2023-10-04T03:40:07.060Z,1011.66
2023-10-04T03:41:07.086Z,1011.69
2023-10-04T03:42:07.072Z,1011.69
2023-10-04T03:43:07.142Z,1011.73
2023-10-04T03:44:07.063Z,1011.74
2023-10-04T03:45:07.030Z,1011.76
2023-10-04T03:46:07.029Z,1011.79
2023-10-04T03:47:07.023Z,1011.78
2023-10-04T03:48:07.094Z,1011.78
2023-10-04T03:49:07.101Z,1011.78
2023-10-04T03:50:06.958Z,1011.82
2023-10-04T03:51:07.032Z,1011.80
2023-10-04T03:52:06.968Z,1011.81
2023-10-04T03:53:06.946Z,1011.81
2023-10-04T03:54:07.018Z,1011.80
2023-10-04T03:55:06.915Z,1011.78
2023-10-04T03:56:06.885Z,1011.78
2023-10-04T03:57:06.987Z,1011.76
2023-10-04T03:58:06.878Z,1011.77
2023-10-04T03:59:06.869Z,1011.78
2023-10-04T04:00:07.164Z,1011.79
2023-10-04T04:01:06.917Z,1011.81
2023-10-04T04:02:06.871Z,1011.85
2023-10-04T04:03:06.967Z,1011.82
2023-10-04T04:04:07.028Z,1011.82
2023-10-04T04:05:07.043Z,1011.86
2023-10-04T04:06:06.811Z,1011.82
2023-10-04T04:07:06.779Z,1011.85
2023-10-04T04:08:06.793Z,1011.80
2023-10-04T04:09:06.961Z,1011.79
2023-10-04T04:10:06.747Z,1011.79
2023-10-04T04:11:06.740Z,1011.80
2023-10-04T04:12:06.723Z,1011.82
2023-10-04T04:13:06.733Z,1011.79
2023-10-04T04:14:07.270Z,1011.83
2023-10-04T04:15:06.724Z,1011.86
2023-10-04T04:16:06.677Z,1011.81
2023-10-04T04:17:06.676Z,1011.83
2023-10-04T04:18:06.716Z,1011.81
2023-10-04T04:19:06.735Z,1011.82
2023-10-04T04:20:06.624Z,1011.80
2023-10-04T04:21:06.933Z,1011.81
2023-10-04T04:22:06.620Z,1011.80
2023-10-04T04:23:06.733Z,1011.81
2023-10-04T04:24:07.506Z,1011.84
2023-10-04T04:25:06.580Z,1011.87
2023-10-04T04:26:06.628Z,1011.85
2023-10-04T04:27:06.543Z,1011.84
2023-10-04T04:28:06.553Z,1011.85
2023-10-04T04:29:06.838Z,1011.85
2023-10-04T04:30:06.583Z,1011.86
2023-10-04T04:31:06.618Z,1011.85
2023-10-04T04:32:06.503Z,1011.84
2023-10-04T04:33:06.555Z,1011.84
2023-10-04T04:34:06.531Z,1011.83
2023-10-04T04:35:06.461Z,1011.85
2023-10-04T04:36:06.643Z,1011.85
2023-10-04T04:37:06.445Z,1011.87
2023-10-04T04:38:06.451Z,1011.89
2023-10-04T04:39:07.542Z,1011.90
2023-10-04T04:40:06.419Z,1011.92
2023-10-04T04:41:06.398Z,1011.92
2023-10-04T04:42:06.480Z,1012.02
2023-10-04T04:43:06.396Z,1012.00
2023-10-04T04:44:06.984Z,1011.99
2023-10-04T04:45:06.374Z,1011.96
2023-10-04T04:46:06.415Z,1012.00
2023-10-04T04:47:06.337Z,1011.99
2023-10-04T04:48:06.401Z,1012.00
2023-10-04T04:49:06.451Z,1011.97
2023-10-04T04:50:06.302Z,1011.93
2023-10-04T04:51:06.324Z,1011.91
2023-10-04T04:52:06.276Z,1011.90
2023-10-04T04:53:06.277Z,1011.86
2023-10-04T04:54:06.364Z,1011.83
2023-10-04T04:55:06.261Z,1011.80
2023-10-04T04:56:06.277Z,1011.81
2023-10-04T04:57:06.360Z,1011.81
2023-10-04T04:58:06.495Z,1011.82
2023-10-04T04:59:06.504Z,1011.83
2023-10-04T05:00:06.485Z,1011.85
2023-10-04T05:01:06.187Z,1011.82
2023-10-04T05:02:06.195Z,1011.83
2023-10-04T05:03:06.248Z,1011.87
2023-10-04T05:04:06.234Z,1011.90
2023-10-04T05:05:06.153Z,1011.91
2023-10-04T05:06:06.168Z,1011.93
2023-10-04T05:07:06.273Z,1011.94
2023-10-04T05:08:06.118Z,1011.96
2023-10-04T05:09:06.687Z,1011.99
2023-10-04T05:10:06.083Z,1011.98
2023-10-04T05:11:06.078Z,1011.99
2023-10-04T05:12:06.252Z,1012.01
2023-10-04T05:13:06.017Z,1012.02
2023-10-04T05:14:07.488Z,1012.02
2023-10-04T05:15:06.036Z,1012.02
2023-10-04T05:16:06.065Z,1012.00
2023-10-04T05:17:06.001Z,1012.04
2023-10-04T05:18:06.076Z,1012.05
2023-10-04T05:19:06.472Z,1012.03
2023-10-04T05:20:05.939Z,1012.01
2023-10-04T05:21:05.958Z,1011.97
2023-10-04T05:22:05.942Z,1011.93
2023-10-04T05:23:05.927Z,1011.88
2023-10-04T05:24:05.893Z,1011.88
2023-10-04T05:25:05.882Z,1011.85
2023-10-04T05:26:05.864Z,1011.86
2023-10-04T05:27:05.901Z,1011.89
2023-10-04T05:28:05.855Z,1011.88
2023-10-04T05:29:06.001Z,1011.90
2023-10-04T05:30:05.819Z,1011.93
2023-10-04T05:31:05.801Z,1011.89
2023-10-04T05:32:06.007Z,1011.92
2023-10-04T05:33:05.901Z,1011.90
2023-10-04T05:34:05.799Z,1011.87
2023-10-04T05:35:05.782Z,1011.83
2023-10-04T05:36:05.786Z,1011.82
2023-10-04T05:37:05.742Z,1011.82
2023-10-04T05:38:05.982Z,1011.83
2023-10-04T05:39:05.894Z,1011.87
2023-10-04T05:40:05.720Z,1011.89
2023-10-04T05:41:05.694Z,1011.94
2023-10-04T05:42:05.720Z,1011.96
2023-10-04T05:43:05.677Z,1011.97
2023-10-04T05:44:05.682Z,1011.97
2023-10-04T05:45:05.661Z,1012.00
2023-10-04T05:46:05.757Z,1011.97
2023-10-04T05:47:05.631Z,1012.00
2023-10-04T05:48:05.809Z,1011.96
2023-10-04T05:49:05.650Z,1011.99
2023-10-04T05:50:05.607Z,1011.98
2023-10-04T05:51:05.915Z,1011.99
2023-10-04T05:52:05.661Z,1012.00
2023-10-04T05:53:05.684Z,1012.02
2023-10-04T05:54:06.557Z,1012.05
2023-10-04T05:55:05.544Z,1012.05
2023-10-04T05:56:05.542Z,1012.08
2023-10-04T05:57:05.561Z,1012.10
2023-10-04T05:58:05.521Z,1012.14
2023-10-04T05:59:05.645Z,1012.19
2023-10-04T06:00:05.741Z,1012.18
2023-10-04T06:01:05.822Z,1012.19
2023-10-04T06:02:05.490Z,1012.21
2023-10-04T06:03:05.527Z,1012.22
2023-10-04T06:04:05.553Z,1012.21
2023-10-04T06:05:05.444Z,1012.20
2023-10-04T06:06:05.481Z,1012.24
2023-10-04T06:07:05.424Z,1012.26
2023-10-04T06:08:05.424Z,1012.29
2023-10-04T06:09:05.515Z,1012.29
2023-10-04T06:10:05.424Z,1012.28
2023-10-04T06:11:05.442Z,1012.30
2023-10-04T06:12:05.470Z,1012.33
2023-10-04T06:13:05.394Z,1012.35
2023-10-04T06:14:05.419Z,1012.39
2023-10-04T06:15:05.649Z,1012.36
2023-10-04T06:16:05.363Z,1012.36
2023-10-04T06:17:05.796Z,1012.35
2023-10-04T06:18:05.549Z,1012.39
2023-10-04T06:19:12.895Z,1012.44
2023-10-04T06:20:05.303Z,1012.50
2023-10-04T06:21:05.284Z,1012.50
2023-10-04T06:22:05.307Z,1012.54
2023-10-04T06:23:05.290Z,1012.55
2023-10-04T06:24:05.266Z,1012.58
2023-10-04T06:25:05.286Z,1012.64
2023-10-04T06:26:05.209Z,1012.69
2023-10-04T06:27:05.269Z,1012.75
2023-10-04T06:28:05.468Z,1012.78
2023-10-04T06:29:05.884Z,1012.77
2023-10-04T06:30:05.201Z,1012.77
2023-10-04T06:31:05.290Z,1012.79
2023-10-04T06:32:05.210Z,1012.81
2023-10-04T06:33:05.191Z,1012.84
2023-10-04T06:34:05.236Z,1012.88
2023-10-04T06:35:05.220Z,1012.87
2023-10-04T06:36:05.169Z,1012.88
2023-10-04T06:37:05.115Z,1012.86
2023-10-04T06:38:05.072Z,1012.85
2023-10-04T06:39:05.224Z,1012.87
2023-10-04T06:40:05.400Z,1012.91
2023-10-04T06:41:05.109Z,1012.95
2023-10-04T06:42:05.037Z,1012.94
2023-10-04T06:43:05.087Z,1012.93
2023-10-04T06:44:05.130Z,1012.91
2023-10-04T06:45:05.010Z,1012.91
2023-10-04T06:46:05.107Z,1012.91
2023-10-04T06:47:04.981Z,1012.96
2023-10-04T06:48:05.047Z,1012.95
2023-10-04T06:49:05.117Z,1012.95
2023-10-04T06:50:05.106Z,1013.00
2023-10-04T06:51:04.926Z,1013.01
2023-10-04T06:52:04.923Z,1013.01
2023-10-04T06:53:05.033Z,1013.03
2023-10-04T06:54:04.932Z,1013.03
2023-10-04T06:55:04.882Z,1013.05
2023-10-04T06:56:05.506Z,1013.03
2023-10-04T06:57:04.942Z,1013.01
2023-10-04T06:58:04.893Z,1012.99
2023-10-04T06:59:05.065Z,1012.98
2023-10-04T07:00:04.898Z,1013.03
2023-10-04T07:01:06.356Z,1013.02
2023-10-04T07:02:04.861Z,1013.06
2023-10-04T07:03:05.105Z,1013.07
2023-10-04T07:04:04.956Z,1013.13
2023-10-04T07:05:04.831Z,1013.07
2023-10-04T07:06:04.888Z,1013.10
2023-10-04T07:07:04.771Z,1013.12
2023-10-04T07:08:05.210Z,1013.09
2023-10-04T07:09:04.945Z,1013.07
2023-10-04T07:10:04.758Z,1013.08
2023-10-04T07:11:04.716Z,1013.09
2023-10-04T07:12:04.712Z,1013.07
2023-10-04T07:13:05.001Z,1013.06
2023-10-04T07:14:04.686Z,1013.09
2023-10-04T07:15:04.681Z,1013.07
2023-10-04T07:16:04.731Z,1013.09
2023-10-04T07:17:04.713Z,1013.06
2023-10-04T07:18:04.662Z,1013.05
2023-10-04T07:19:05.017Z,1013.07
2023-10-04T07:20:04.626Z,1013.11
2023-10-04T07:21:04.607Z,1013.10
2023-10-04T07:22:04.749Z,1013.12
2023-10-04T07:23:04.597Z,1013.13
2023-10-04T07:24:04.632Z,1013.18
2023-10-04T07:25:04.832Z,1013.19
2023-10-04T07:26:04.606Z,1013.20
2023-10-04T07:27:04.557Z,1013.20
2023-10-04T07:28:04.621Z,1013.22
2023-10-04T07:29:04.788Z,1013.22
2023-10-04T07:30:04.522Z,1013.21
2023-10-04T07:31:04.603Z,1013.21
2023-10-04T07:32:04.520Z,1013.23
2023-10-04T07:33:04.582Z,1013.25
2023-10-04T07:34:04.884Z,1013.26
2023-10-04T07:35:04.472Z,1013.26
2023-10-04T07:36:04.452Z,1013.26
2023-10-04T07:37:04.443Z,1013.29
2023-10-04T07:38:04.515Z,1013.28
2023-10-04T07:39:04.443Z,1013.27
2023-10-04T07:40:04.414Z,1013.28
2023-10-04T07:41:04.394Z,1013.26
2023-10-04T07:42:04.445Z,1013.27
2023-10-04T07:43:04.781Z,1013.31
2023-10-04T07:44:04.727Z,1013.34
2023-10-04T07:45:04.402Z,1013.33
2023-10-04T07:46:04.419Z,1013.33
2023-10-04T07:47:04.384Z,1013.31
2023-10-04T07:48:04.500Z,1013.35
2023-10-04T07:49:04.343Z,1013.37
2023-10-04T07:50:04.321Z,1013.35
2023-10-04T07:51:04.510Z,1013.37
2023-10-04T07:52:04.285Z,1013.40
2023-10-04T07:53:04.268Z,1013.42
2023-10-04T07:54:04.932Z,1013.43
2023-10-04T07:55:04.355Z,1013.45
2023-10-04T07:56:04.258Z,1013.47
2023-10-04T07:57:04.221Z,1013.45
2023-10-04T07:58:04.418Z,1013.48
2023-10-04T07:59:04.266Z,1013.46
2023-10-04T08:00:04.317Z,1013.48
2023-10-04T08:01:04.253Z,1013.46
2023-10-04T08:02:04.174Z,1013.48
2023-10-04T08:03:04.181Z,1013.47
2023-10-04T08:04:04.735Z,1013.51
2023-10-04T08:05:04.301Z,1013.56
2023-10-04T08:06:04.499Z,1013.58
2023-10-04T08:07:04.125Z,1013.56
2023-10-04T08:08:05.771Z,1013.59
2023-10-04T08:09:04.092Z,1013.56
2023-10-04T08:10:04.085Z,1013.58
2023-10-04T08:11:04.120Z,1013.59
2023-10-04T08:12:04.123Z,1013.58
2023-10-04T08:13:04.096Z,1013.56
2023-10-04T08:14:04.275Z,1013.61
2023-10-04T08:15:04.033Z,1013.56
2023-10-04T08:16:04.116Z,1013.59
2023-10-04T08:17:04.120Z,1013.60
2023-10-04T08:18:04.066Z,1013.57
2023-10-04T08:19:04.116Z,1013.57
2023-10-04T08:20:04.026Z,1013.56
2023-10-04T08:21:04.047Z,1013.56
2023-10-04T08:22:03.993Z,1013.55
2023-10-04T08:23:04.382Z,1013.51
2023-10-04T08:24:04.132Z,1013.52
2023-10-04T08:25:03.995Z,1013.54
2023-10-04T08:26:03.901Z,1013.50
2023-10-04T08:27:03.901Z,1013.48
2023-10-04T08:28:04.124Z,1013.50
2023-10-04T08:29:03.898Z,1013.49
2023-10-04T08:30:03.882Z,1013.51
2023-10-04T08:31:04.497Z,1013.49
2023-10-04T08:32:03.851Z,1013.52
2023-10-04T08:33:03.881Z,1013.53
2023-10-04T08:34:04.132Z,1013.54
2023-10-04T08:35:03.844Z,1013.53
2023-10-04T08:36:03.840Z,1013.51
2023-10-04T08:37:03.810Z,1013.51
2023-10-04T08:38:03.785Z,1013.53
2023-10-04T08:39:03.764Z,1013.51
2023-10-04T08:40:03.778Z,1013.57
2023-10-04T08:41:03.851Z,1013.52
2023-10-04T08:42:03.738Z,1013.54
2023-10-04T08:43:03.721Z,1013.50
2023-10-04T08:44:03.854Z,1013.55
2023-10-04T08:45:03.854Z,1013.54
2023-10-04T08:46:03.785Z,1013.56
2023-10-04T08:47:03.692Z,1013.55
2023-10-04T08:48:04.101Z,1013.57
2023-10-04T08:49:03.781Z,1013.55
2023-10-04T08:50:03.656Z,1013.56
2023-10-04T08:51:03.664Z,1013.53
2023-10-04T08:52:03.681Z,1013.56
2023-10-04T08:53:03.635Z,1013.55
2023-10-04T08:54:03.873Z,1013.59
2023-10-04T08:55:03.602Z,1013.58
2023-10-04T08:56:03.627Z,1013.57
2023-10-04T08:57:03.827Z,1013.60
2023-10-04T08:58:03.573Z,1013.60
2023-10-04T08:59:03.565Z,1013.60
2023-10-04T09:00:14.393Z,1013.53
2023-10-04T09:01:03.697Z,1013.59
2023-10-04T09:02:03.583Z,1013.56
2023-10-04T09:03:03.593Z,1013.54
2023-10-04T09:04:03.773Z,1013.57
2023-10-04T09:05:03.588Z,1013.56
2023-10-04T09:06:03.563Z,1013.58
2023-10-04T09:07:03.487Z,1013.57
2023-10-04T09:08:03.448Z,1013.57
2023-10-04T09:09:03.919Z,1013.60
2023-10-04T09:10:03.433Z,1013.60
2023-10-04T09:11:03.462Z,1013.59
2023-10-04T09:12:03.415Z,1013.63
2023-10-04T09:13:03.439Z,1013.64
2023-10-04T09:14:03.687Z,1013.62
2023-10-04T09:15:03.600Z,1013.63
2023-10-04T09:16:03.442Z,1013.58
2023-10-04T09:17:03.418Z,1013.53
2023-10-04T09:18:03.412Z,1013.51
2023-10-04T09:19:03.341Z,1013.53
2023-10-04T09:20:03.321Z,1013.56
2023-10-04T09:21:03.356Z,1013.57
2023-10-04T09:22:03.336Z,1013.57
2023-10-04T09:23:03.307Z,1013.58
2023-10-04T09:24:03.544Z,1013.66
2023-10-04T09:25:03.320Z,1013.64
2023-10-04T09:26:03.320Z,1013.62
2023-10-04T09:27:03.288Z,1013.67
2023-10-04T09:28:03.275Z,1013.72
2023-10-04T09:29:03.268Z,1013.65
2023-10-04T09:30:03.301Z,1013.64
2023-10-04T09:31:03.265Z,1013.74
2023-10-04T09:32:03.724Z,1013.71
2023-10-04T09:33:03.412Z,1013.67
2023-10-04T09:34:03.588Z,1013.63
2023-10-04T09:35:03.161Z,1013.66
2023-10-04T09:36:03.149Z,1013.66
2023-10-04T09:37:03.145Z,1013.63
2023-10-04T09:38:03.160Z,1013.63
2023-10-04T09:39:03.139Z,1013.66
2023-10-04T09:40:03.230Z,1013.67
2023-10-04T09:41:03.101Z,1013.65
2023-10-04T09:42:03.092Z,1013.62
2023-10-04T09:43:03.157Z,1013.69
2023-10-04T09:44:03.307Z,1013.59
2023-10-04T09:45:03.069Z,1013.63
2023-10-04T09:46:03.056Z,1013.65
2023-10-04T09:47:03.257Z,1013.66
2023-10-04T09:48:03.061Z,1013.67
2023-10-04T09:49:03.037Z,1013.65
2023-10-04T09:50:03.414Z,1013.60
2023-10-04T09:51:03.000Z,1013.65
2023-10-04T09:52:03.051Z,1013.64
2023-10-04T09:53:02.988Z,1013.67
2023-10-04T09:54:03.220Z,1013.67
2023-10-04T09:55:02.958Z,1013.60
2023-10-04T09:56:03.228Z,1013.65
2023-10-04T09:57:02.953Z,1013.58
2023-10-04T09:58:02.923Z,1013.62
2023-10-04T09:59:02.928Z,1013.61
2023-10-04T10:00:02.886Z,1013.69
2023-10-04T10:01:03.033Z,1013.66
2023-10-04T10:02:02.885Z,1013.63
2023-10-04T10:03:02.985Z,1013.59
2023-10-04T10:04:02.989Z,1013.60
2023-10-04T10:05:03.215Z,1013.62
2023-10-04T10:06:02.866Z,1013.63
2023-10-04T10:07:02.829Z,1013.60
2023-10-04T10:08:02.959Z,1013.59
2023-10-04T10:09:02.835Z,1013.63
2023-10-04T10:10:07.097Z,1013.62
2023-10-04T10:11:02.809Z,1013.64
2023-10-04T10:12:03.170Z,1013.65
2023-10-04T10:13:02.754Z,1013.62
2023-10-04T10:14:02.967Z,1013.61
2023-10-04T10:15:02.888Z,1013.68
2023-10-04T10:16:02.774Z,1013.62
2023-10-04T10:17:02.800Z,1013.61
2023-10-04T10:18:02.733Z,1013.59
2023-10-04T10:19:02.730Z,1013.58
2023-10-04T10:20:02.681Z,1013.59
2023-10-04T10:21:02.692Z,1013.58
2023-10-04T10:22:02.677Z,1013.57
2023-10-04T10:23:02.661Z,1013.56
2023-10-04T10:24:02.717Z,1013.59
2023-10-04T10:25:02.633Z,1013.57
2023-10-04T10:26:02.621Z,1013.58
2023-10-04T10:27:02.620Z,1013.54
2023-10-04T10:28:02.700Z,1013.59
2023-10-04T10:29:02.594Z,1013.54
2023-10-04T10:30:02.647Z,1013.55
2023-10-04T10:31:02.639Z,1013.59
2023-10-04T10:32:02.697Z,1013.55
2023-10-04T10:33:02.602Z,1013.60
2023-10-04T10:34:02.718Z,1013.64
2023-10-04T10:35:02.586Z,1013.58
2023-10-04T10:36:02.538Z,1013.60
2023-10-04T10:37:02.635Z,1013.64
2023-10-04T10:38:02.600Z,1013.60
2023-10-04T10:39:02.534Z,1013.63
2023-10-04T10:40:02.537Z,1013.66
2023-10-04T10:41:02.458Z,1013.65
2023-10-04T10:42:02.575Z,1013.66
2023-10-04T10:43:02.457Z,1013.62
2023-10-04T10:44:10.264Z,1013.65
2023-10-04T10:45:02.656Z,1013.61
2023-10-04T10:46:02.457Z,1013.63
2023-10-04T10:47:02.462Z,1013.67
2023-10-04T10:48:02.446Z,1013.68
2023-10-04T10:49:02.419Z,1013.62
2023-10-04T10:50:02.398Z,1013.63
2023-10-04T10:51:02.435Z,1013.55
2023-10-04T10:52:02.352Z,1013.65
2023-10-04T10:53:02.564Z,1013.64
2023-10-04T10:54:02.452Z,1013.61
2023-10-04T10:55:02.368Z,1013.62
2023-10-04T10:56:02.578Z,1013.64
2023-10-04T10:57:02.282Z,1013.66
2023-10-04T10:58:02.342Z,1013.65
2023-10-04T10:59:02.276Z,1013.57
2023-10-04T11:00:02.243Z,1013.55
2023-10-04T11:01:02.297Z,1013.55
2023-10-04T11:02:02.280Z,1013.64
2023-10-04T11:03:02.616Z,1013.60
2023-10-04T11:04:02.445Z,1013.55
2023-10-04T11:05:02.213Z,1013.52
2023-10-04T11:06:02.258Z,1013.55
2023-10-04T11:07:02.225Z,1013.60
2023-10-04T11:08:02.187Z,1013.53
2023-10-04T11:09:02.154Z,1013.53
2023-10-04T11:10:02.175Z,1013.56
2023-10-04T11:11:02.152Z,1013.54
2023-10-04T11:12:02.125Z,1013.57
2023-10-04T11:13:02.146Z,1013.58
2023-10-04T11:14:02.309Z,1013.55
2023-10-04T11:15:02.091Z,1013.50
2023-10-04T11:16:02.115Z,1013.51
2023-10-04T11:17:02.171Z,1013.50
2023-10-04T11:18:02.157Z,1013.52
2023-10-04T11:19:02.121Z,1013.52
2023-10-04T11:20:02.035Z,1013.46
2023-10-04T11:21:02.028Z,1013.49
2023-10-04T11:22:02.034Z,1013.55
2023-10-04T11:23:02.054Z,1013.51
2023-10-04T11:24:02.364Z,1013.52
2023-10-04T11:25:01.999Z,1013.53
2023-10-04T11:26:02.096Z,1013.55
2023-10-04T11:27:02.377Z,1013.56
2023-10-04T11:28:02.106Z,1013.57
2023-10-04T11:29:02.172Z,1013.47
2023-10-04T11:30:01.936Z,1013.50
2023-10-04T11:31:02.020Z,1013.51
2023-10-04T11:32:02.762Z,1013.46
2023-10-04T11:33:01.992Z,1013.46
2023-10-04T11:34:02.007Z,1013.47
2023-10-04T11:35:01.880Z,1013.47
2023-10-04T11:36:02.036Z,1013.49
2023-10-04T11:37:01.940Z,1013.50
2023-10-04T11:38:01.865Z,1013.43
2023-10-04T11:39:01.860Z,1013.45
2023-10-04T11:40:01.854Z,1013.41
2023-10-04T11:41:01.848Z,1013.40
2023-10-04T11:42:01.965Z,1013.42
2023-10-04T11:43:02.199Z,1013.41
2023-10-04T11:44:02.196Z,1013.41
2023-10-04T11:45:01.803Z,1013.43
2023-10-04T11:46:01.917Z,1013.39
2023-10-04T11:47:01.812Z,1013.42
2023-10-04T11:48:01.996Z,1013.41
2023-10-04T11:49:01.988Z,1013.40
2023-10-04T11:50:01.732Z,1013.39
2023-10-04T11:51:02.095Z,1013.46
2023-10-04T11:52:01.761Z,1013.42
2023-10-04T11:53:01.774Z,1013.29
2023-10-04T11:54:06.517Z,1013.28
2023-10-04T11:55:01.875Z,1013.29
2023-10-04T11:56:01.655Z,1013.30
2023-10-04T11:57:01.659Z,1013.30
2023-10-04T11:58:01.647Z,1013.29
2023-10-04T11:59:01.673Z,1013.29
2023-10-04T12:00:01.614Z,1013.24
2023-10-04T12:01:01.686Z,1013.29
2023-10-04T12:02:01.684Z,1013.29
2023-10-04T12:03:01.946Z,1013.26
2023-10-04T12:04:01.650Z,1013.32
2023-10-04T12:05:01.629Z,1013.24